createdAt,value
2024-03-12T00:01:29.100Z,2.42
2024-03-12T00:04:30.979Z,2.15
2024-03-12T00:07:32.987Z,2.58
2024-03-12T00:10:36.480Z,2.03
2024-03-12T00:13:38.300Z,2.17
2024-03-12T00:16:40.188Z,2.22
2024-03-12T00:19:41.939Z,2.10
2024-03-12T00:22:44.039Z,2.10
2024-03-12T00:25:47.194Z,2.25
2024-03-12T00:28:49.061Z,2.33
2024-03-12T00:31:51.128Z,2.53
2024-03-12T00:34:52.935Z,2.47
2024-03-12T00:37:54.956Z,2.60
2024-03-12T00:40:58.320Z,2.38
2024-03-12T00:44:00.261Z,2.45
2024-03-12T00:47:02.136Z,2.47
2024-03-12T00:50:04.307Z,2.60
2024-03-12T00:53:06.362Z,2.92
2024-03-12T00:56:09.441Z,2.78
2024-03-12T00:59:11.339Z,2.70
2024-03-12T01:02:13.127Z,2.72
2024-03-12T01:05:15.244Z,2.58
2024-03-12T01:08:17.074Z,2.28
2024-03-12T01:11:20.562Z,2.50
2024-03-12T01:14:22.546Z,2.42
2024-03-12T01:17:24.406Z,2.70
2024-03-12T01:20:26.789Z,2.67
2024-03-12T01:23:28.669Z,2.05
2024-03-12T01:26:31.882Z,2.60
2024-03-12T01:29:33.660Z,2.28
2024-03-12T01:32:35.502Z,2.40
2024-03-12T01:35:37.354Z,3.28
2024-03-12T01:38:39.276Z,2.88
2024-03-12T01:41:43.160Z,2.75
2024-03-12T01:44:45.834Z,2.83
2024-03-12T01:47:47.828Z,2.47
2024-03-12T01:50:50.372Z,2.80
2024-03-12T01:53:52.284Z,2.70
2024-03-12T01:56:55.495Z,2.13
2024-03-12T01:59:57.287Z,2.10
2024-03-12T02:02:59.023Z,2.50
2024-03-12T02:06:00.969Z,2.00
2024-03-12T02:09:02.942Z,2.50
2024-03-12T02:12:06.844Z,2.47
2024-03-12T02:15:09.259Z,2.60
2024-03-12T02:18:11.132Z,2.70
2024-03-12T02:21:13.237Z,3.03
2024-03-12T02:24:16.534Z,2.80
2024-03-12T02:27:18.753Z,2.90
2024-03-12T02:30:21.014Z,3.05
2024-03-12T02:33:23.072Z,3.30
2024-03-12T02:36:25.145Z,3.13
2024-03-12T02:39:28.502Z,3.20
2024-03-12T02:42:30.801Z,3.35
2024-03-12T02:45:32.883Z,3.47
2024-03-12T02:48:34.838Z,3.03
2024-03-12T02:51:36.821Z,3.08
2024-03-12T02:54:40.419Z,3.20
2024-03-12T02:57:42.877Z,3.60
2024-03-12T03:00:45.037Z,4.00
2024-03-12T03:03:46.960Z,3.80
2024-03-12T03:06:48.930Z,3.60
2024-03-12T03:09:52.511Z,4.35
2024-03-12T03:12:54.454Z,3.58
2024-03-12T03:15:56.674Z,3.80
2024-03-12T03:18:58.708Z,3.92
2024-03-12T03:22:00.705Z,3.78
2024-03-12T03:25:04.127Z,4.03
2024-03-12T03:28:06.433Z,3.97
2024-03-12T03:31:08.706Z,3.92
2024-03-12T03:34:10.786Z,3.65
2024-03-12T03:37:12.930Z,3.78
2024-03-12T03:40:16.567Z,3.88
2024-03-12T03:43:18.519Z,4.43
2024-03-12T03:46:20.443Z,4.35
2024-03-12T03:49:22.432Z,4.32
2024-03-12T03:52:24.327Z,4.03
2024-03-12T03:55:27.486Z,4.25
2024-03-12T03:58:29.368Z,4.00
2024-03-12T04:01:31.274Z,4.15
2024-03-12T04:04:33.278Z,4.70
2024-03-12T04:07:35.299Z,4.05
2024-03-12T04:10:38.640Z,3.75
2024-03-12T04:13:40.653Z,4.00
2024-03-12T04:16:45.070Z,4.20
2024-03-12T04:19:46.974Z,4.43
2024-03-12T04:22:48.908Z,4.18
2024-03-12T04:25:52.567Z,3.97
2024-03-12T04:28:54.492Z,4.03
2024-03-12T04:31:56.478Z,4.03
2024-03-12T04:34:58.479Z,4.18
2024-03-12T04:38:00.414Z,4.68
2024-03-12T04:41:03.790Z,4.32
2024-03-12T04:44:05.739Z,4.43
2024-03-12T04:47:07.553Z,4.28
2024-03-12T04:50:09.969Z,4.10
2024-03-12T04:53:11.717Z,4.13
2024-03-12T04:56:14.991Z,4.05
2024-03-12T04:59:17.285Z,3.80
2024-03-12T05:02:19.038Z,4.20
2024-03-12T05:05:21.209Z,4.15
2024-03-12T05:08:23.356Z,3.55
2024-03-12T05:11:26.835Z,4.20
2024-03-12T05:14:28.663Z,4.25
2024-03-12T05:17:30.643Z,4.32
2024-03-12T05:20:32.492Z,4.03
2024-03-12T05:23:34.398Z,3.78
2024-03-12T05:26:37.774Z,3.92
2024-03-12T05:29:39.524Z,4.35
2024-03-12T05:32:41.669Z,4.22
2024-03-12T05:35:43.808Z,3.72
2024-03-12T05:38:45.572Z,4.50
2024-03-12T05:41:51.985Z,3.85
2024-03-12T05:44:53.809Z,4.45
2024-03-12T05:47:55.704Z,4.20
2024-03-12T05:50:57.825Z,4.25
2024-03-12T05:53:59.790Z,4.63
2024-03-12T05:57:03.151Z,4.28
2024-03-12T06:00:06.463Z,4.57
2024-03-12T06:03:08.788Z,3.60
2024-03-12T06:06:17.648Z,4.20
2024-03-12T06:09:19.548Z,3.97
2024-03-12T06:12:23.013Z,4.15
2024-03-12T06:15:25.080Z,4.10
2024-03-12T06:18:27.476Z,4.93
2024-03-12T06:21:29.456Z,4.80
2024-03-12T06:24:31.398Z,4.50
2024-03-12T06:27:34.950Z,5.40
2024-03-12T06:30:37.199Z,4.88
2024-03-12T06:33:39.351Z,4.28
2024-03-12T06:36:41.668Z,4.53
2024-03-12T06:39:43.809Z,4.35
2024-03-12T06:42:47.173Z,3.80
2024-03-12T06:45:49.622Z,4.18
2024-03-12T06:48:51.399Z,3.97
2024-03-12T06:51:53.263Z,3.85
2024-03-12T06:54:55.478Z,3.88
2024-03-12T06:57:59.225Z,4.30
2024-03-12T07:01:01.341Z,4.20
2024-03-12T07:04:03.594Z,4.05
2024-03-12T07:07:05.695Z,4.10
2024-03-12T07:10:08.065Z,3.67
2024-03-12T07:13:11.475Z,3.60
2024-03-12T07:16:13.555Z,3.80
2024-03-12T07:19:15.954Z,3.50
2024-03-12T07:22:18.513Z,4.53
2024-03-12T07:25:23.504Z,3.75
2024-03-12T07:28:27.078Z,4.60
2024-03-12T07:31:29.526Z,4.57
2024-03-12T07:34:31.964Z,3.58
2024-03-12T07:37:35.596Z,3.60
2024-03-12T07:40:37.447Z,3.53
2024-03-12T07:43:40.805Z,3.70
2024-03-12T07:46:42.788Z,3.85
2024-03-12T07:49:44.798Z,3.50
2024-03-12T07:52:47.080Z,3.20
2024-03-12T07:55:49.415Z,3.88
2024-03-12T07:58:53.069Z,3.58
2024-03-12T08:01:55.565Z,4.68
2024-03-12T08:04:57.509Z,3.90
2024-03-12T08:07:59.482Z,3.90
2024-03-12T08:11:04.741Z,4.35
2024-03-12T08:14:11.536Z,3.53
2024-03-12T08:17:13.468Z,3.28
2024-03-12T08:20:28.275Z,3.97
2024-03-12T08:23:30.231Z,3.67
2024-03-12T08:26:32.532Z,3.45
2024-03-12T08:29:35.682Z,3.95
2024-03-12T08:32:37.694Z,3.72
2024-03-12T08:35:39.614Z,3.95
2024-03-12T08:38:41.485Z,3.92
2024-03-12T08:41:43.458Z,3.40
2024-03-12T08:44:46.942Z,3.33
2024-03-12T08:47:48.842Z,3.28
2024-03-12T08:50:50.919Z,3.35
2024-03-12T08:53:52.859Z,3.70
2024-03-12T08:56:55.110Z,3.03
2024-03-12T08:59:59.330Z,3.53
2024-03-12T09:03:10.984Z,4.00
2024-03-12T09:06:16.143Z,3.60
2024-03-12T09:09:17.948Z,3.55
2024-03-12T09:12:19.760Z,3.50
2024-03-12T09:15:25.914Z,3.55
2024-03-12T09:18:28.002Z,3.70
2024-03-12T09:21:53.044Z,4.10
2024-03-12T09:24:55.200Z,3.47
2024-03-12T09:27:57.170Z,3.47
2024-03-12T09:31:01.591Z,3.35
2024-03-12T09:34:04.121Z,3.38
2024-03-12T09:37:08.211Z,3.33
2024-03-12T09:40:11.313Z,3.28
2024-03-12T09:43:17.969Z,3.70
2024-03-12T09:46:23.103Z,3.20
2024-03-12T09:49:27.023Z,3.42
2024-03-12T09:52:30.094Z,3.20
2024-03-12T09:55:32.526Z,3.80
2024-03-12T09:58:34.527Z,3.22
2024-03-12T10:01:39.724Z,3.70
2024-03-12T10:04:41.716Z,3.45
2024-03-12T10:08:08.353Z,4.10
2024-03-12T10:11:11.194Z,4.38
2024-03-12T10:14:13.390Z,3.83
2024-03-12T10:17:17.936Z,3.58
2024-03-12T10:20:20.484Z,3.63
2024-03-12T10:23:23.612Z,3.50
2024-03-12T10:26:28.994Z,3.45
2024-03-12T10:29:34.588Z,3.70
2024-03-12T10:32:37.796Z,3.65
2024-03-12T10:35:39.769Z,3.20
2024-03-12T10:38:42.188Z,3.70
2024-03-12T10:41:48.146Z,3.72
2024-03-12T10:44:55.110Z,3.40
2024-03-12T10:48:07.774Z,3.47
2024-03-12T10:51:20.212Z,3.08
2024-03-12T10:54:27.513Z,3.13
2024-03-12T10:57:32.121Z,3.45
2024-03-12T11:03:41.630Z,3.70
2024-03-12T11:06:46.012Z,3.00
2024-03-12T11:09:49.333Z,3.53
2024-03-12T11:12:51.578Z,3.60
2024-03-12T11:16:14.187Z,3.10
2024-03-12T11:19:22.474Z,3.20
2024-03-12T11:22:28.442Z,3.33
2024-03-12T11:25:41.558Z,2.92
2024-03-12T11:29:14.326Z,2.83
2024-03-12T11:32:19.864Z,2.88
2024-03-12T11:35:30.808Z,2.50
2024-03-12T11:38:34.005Z,2.60
2024-03-12T11:42:09.760Z,2.58
2024-03-12T11:45:35.939Z,2.67
2024-03-12T11:48:46.031Z,2.88
2024-03-12T11:51:58.424Z,2.72
2024-03-12T11:55:01.742Z,2.28
2024-03-12T11:58:10.094Z,2.50
2024-03-12T12:01:20.769Z,2.60
2024-03-12T12:04:24.738Z,2.33
2024-03-12T12:07:29.256Z,2.28
2024-03-12T12:10:31.624Z,2.47
2024-03-12T12:13:34.059Z,2.38
2024-03-12T12:16:39.529Z,2.58
2024-03-12T12:19:43.190Z,2.60
2024-03-12T12:22:47.732Z,2.50
2024-03-12T12:25:52.790Z,2.70
2024-03-12T12:28:56.553Z,2.67
2024-03-12T12:32:00.095Z,3.15
2024-03-12T12:35:03.075Z,2.65
2024-03-12T12:38:07.521Z,3.22
2024-03-12T12:41:13.595Z,3.17
2024-03-12T12:44:18.647Z,2.70
2024-03-12T12:47:25.184Z,2.22
2024-03-12T12:50:29.009Z,2.05
2024-03-12T12:53:33.836Z,2.30
2024-03-12T12:56:45.488Z,2.40
2024-03-12T12:59:49.360Z,2.58
2024-03-12T13:02:51.400Z,2.80
2024-03-12T13:06:12.543Z,2.60
2024-03-12T13:10:12.422Z,2.97
2024-03-12T13:13:22.614Z,2.30
2024-03-12T13:16:25.782Z,2.58
2024-03-12T13:19:28.652Z,2.65
2024-03-12T13:22:33.711Z,2.10
2024-03-12T13:25:42.365Z,2.70
2024-03-12T13:28:47.145Z,1.77
2024-03-12T13:31:49.450Z,2.22
2024-03-12T13:34:52.249Z,2.20
2024-03-12T13:38:03.990Z,2.72
2024-03-12T13:41:06.436Z,2.70
2024-03-12T13:44:09.752Z,2.60
2024-03-12T13:47:14.894Z,2.67
2024-03-12T13:50:17.299Z,2.30
2024-03-12T13:53:23.195Z,2.92
2024-03-12T13:56:25.410Z,2.20
2024-03-12T13:59:28.935Z,2.08
2024-03-12T14:02:31.154Z,2.20
2024-03-12T14:05:33.273Z,1.90
2024-03-12T14:08:35.904Z,2.17
2024-03-12T14:11:38.476Z,2.08
2024-03-12T14:14:42.616Z,1.65
2024-03-12T14:17:44.916Z,1.35
2024-03-12T14:20:47.701Z,1.70
2024-03-12T14:23:50.963Z,1.08
2024-03-12T14:26:56.886Z,1.40
2024-03-12T14:30:00.665Z,1.40
2024-03-12T14:33:03.092Z,1.48
2024-03-12T14:36:34.598Z,1.60
2024-03-12T14:39:37.077Z,1.77
2024-03-12T14:42:43.606Z,1.27
2024-03-12T14:45:51.011Z,1.85
2024-03-12T14:48:55.536Z,1.50
2024-03-12T14:51:57.961Z,1.63
2024-03-12T14:55:00.814Z,1.65
2024-03-12T14:58:03.690Z,1.50
2024-03-12T15:01:08.931Z,1.60
2024-03-12T15:04:11.329Z,1.90
2024-03-12T15:07:13.481Z,1.58
2024-03-12T15:10:15.384Z,1.58
2024-03-12T15:13:18.381Z,1.70
2024-03-12T15:16:25.997Z,1.70
2024-03-12T15:19:28.655Z,1.85
2024-03-12T15:22:30.723Z,1.70
2024-03-12T15:25:37.676Z,2.13
2024-03-12T15:28:39.626Z,1.98
2024-03-12T15:31:43.807Z,1.95
2024-03-12T15:34:49.547Z,1.95
2024-03-12T15:37:51.404Z,2.00
2024-03-12T15:40:53.915Z,1.67
2024-03-12T15:44:02.347Z,1.65
2024-03-12T15:47:22.278Z,1.83
2024-03-12T15:50:33.671Z,1.90
2024-03-12T15:53:39.357Z,1.95
2024-03-12T15:56:42.199Z,1.90
2024-03-12T15:59:53.842Z,2.10
2024-03-12T16:10:05.370Z,1.85
2024-03-12T16:13:25.662Z,2.00
2024-03-12T16:16:28.154Z,2.00
2024-03-12T16:19:33.629Z,1.98
2024-03-12T16:22:39.178Z,2.22
2024-03-12T16:25:41.560Z,1.98
2024-03-12T16:28:45.185Z,2.42
2024-03-12T16:31:49.463Z,2.50
2024-03-12T16:34:53.592Z,2.30
2024-03-12T16:37:56.182Z,2.60
2024-03-12T16:40:59.150Z,2.65
2024-03-12T16:44:20.572Z,2.13
2024-03-12T16:47:26.796Z,2.15
2024-03-12T16:50:33.060Z,2.03
2024-03-12T16:53:36.403Z,2.05
2024-03-12T16:56:38.855Z,2.10
2024-03-12T16:59:41.642Z,1.80
2024-03-12T17:03:00.164Z,2.13
2024-03-12T17:06:04.747Z,2.28
2024-03-12T17:09:07.986Z,2.30
2024-03-12T17:12:11.501Z,2.45
2024-03-12T17:15:14.311Z,2.58
2024-03-12T17:18:17.521Z,2.47
2024-03-12T17:21:21.640Z,2.17
2024-03-12T17:24:24.000Z,2.42
2024-03-12T17:27:30.497Z,2.88
2024-03-12T17:30:32.924Z,2.65
2024-03-12T17:33:35.866Z,2.88
2024-03-12T17:36:39.725Z,2.70
2024-03-12T17:39:45.344Z,2.70
2024-03-12T17:42:48.358Z,2.28
2024-03-12T17:45:50.615Z,2.33
2024-03-12T17:48:55.876Z,2.65
2024-03-12T17:52:00.092Z,2.35
2024-03-12T17:55:02.400Z,2.92
2024-03-12T17:58:05.036Z,2.80
2024-03-12T18:01:08.261Z,3.30
2024-03-12T18:04:10.967Z,2.60
2024-03-12T18:07:22.064Z,2.22
2024-03-12T18:10:27.572Z,2.45
2024-03-12T18:13:30.321Z,2.25
2024-03-12T18:16:32.262Z,2.42
2024-03-12T18:19:34.026Z,2.83
2024-03-12T18:22:37.856Z,2.40
2024-03-12T18:25:39.865Z,2.42
2024-03-12T18:28:41.833Z,3.00
2024-03-12T18:31:43.992Z,2.92
2024-03-12T18:34:45.802Z,2.72
2024-03-12T18:37:49.234Z,2.53
2024-03-12T18:40:51.114Z,2.60
2024-03-12T18:43:52.885Z,2.80
2024-03-12T18:46:54.726Z,2.67
2024-03-12T18:49:57.106Z,2.80
2024-03-12T18:53:00.894Z,2.60
2024-03-12T18:56:03.299Z,3.22
2024-03-12T18:59:05.802Z,3.15
2024-03-12T19:02:24.680Z,2.85
2024-03-12T19:05:26.717Z,3.58
2024-03-12T19:08:30.507Z,3.78
2024-03-12T19:11:32.905Z,3.10
2024-03-12T19:14:37.558Z,3.05
2024-03-12T19:17:41.462Z,3.40
2024-03-12T19:20:44.439Z,3.63
2024-03-12T19:23:48.645Z,3.65
2024-03-12T19:26:50.599Z,3.40
2024-03-12T19:29:53.271Z,4.10
2024-03-12T19:32:55.717Z,3.75
2024-03-12T19:35:58.531Z,4.30
2024-03-12T19:39:02.416Z,4.43
2024-03-12T19:42:05.365Z,4.03
2024-03-12T19:45:08.801Z,4.03
2024-03-12T19:48:12.124Z,4.53
2024-03-12T19:51:14.335Z,4.68
2024-03-12T19:54:17.708Z,4.22
2024-03-12T19:57:20.328Z,4.10
2024-03-12T20:00:23.813Z,4.30
2024-03-12T20:03:25.922Z,4.28
2024-03-12T20:06:28.092Z,4.90
2024-03-12T20:09:31.401Z,4.47
2024-03-12T20:12:33.978Z,4.28
2024-03-12T20:15:36.337Z,4.47
2024-03-12T20:18:38.331Z,4.53
2024-03-12T20:21:40.438Z,4.97
2024-03-12T20:24:44.190Z,4.45
2024-03-12T20:27:47.617Z,4.30
2024-03-12T20:30:49.754Z,3.90
2024-03-12T20:33:54.557Z,3.75
2024-03-12T20:36:56.723Z,3.58
2024-03-12T20:40:00.876Z,3.20
2024-03-12T20:43:02.979Z,3.70
2024-03-12T20:46:05.617Z,3.60
2024-03-12T20:49:07.784Z,4.25
2024-03-12T20:52:09.983Z,4.30
2024-03-12T20:55:13.736Z,4.57
2024-03-12T20:58:15.684Z,4.25
2024-03-12T21:01:17.766Z,4.82
2024-03-12T21:04:21.616Z,4.40
2024-03-12T21:07:24.215Z,4.35
2024-03-12T21:10:27.602Z,4.60
2024-03-12T21:13:29.753Z,4.13
2024-03-12T21:16:31.830Z,4.80
2024-03-12T21:19:34.036Z,4.53
2024-03-12T21:22:36.083Z,4.25
2024-03-12T21:25:39.690Z,4.35
2024-03-12T21:28:41.582Z,3.92
2024-03-12T21:31:43.686Z,4.03
2024-03-12T21:34:46.261Z,4.13
2024-03-12T21:37:48.170Z,4.20
2024-03-12T21:40:51.415Z,4.07
2024-03-12T21:43:53.383Z,4.53
2024-03-12T21:46:55.358Z,4.50
2024-03-12T21:49:57.344Z,4.82
2024-03-12T21:52:59.279Z,4.65
2024-03-12T21:56:02.406Z,4.10
2024-03-12T21:59:04.266Z,5.05
2024-03-12T22:02:06.193Z,5.10
2024-03-12T22:05:08.277Z,5.65
2024-03-12T22:08:10.368Z,5.63
2024-03-12T22:11:14.484Z,5.53
2024-03-12T22:14:16.305Z,4.85
2024-03-12T22:17:18.179Z,4.90
2024-03-12T22:20:20.359Z,4.85
2024-03-12T22:23:22.174Z,4.53
2024-03-12T22:26:25.438Z,5.43
2024-03-12T22:29:27.465Z,5.22
2024-03-12T22:32:29.599Z,5.50
2024-03-12T22:35:31.675Z,5.90
2024-03-12T22:38:34.389Z,5.53
2024-03-12T22:41:37.755Z,5.70
2024-03-12T22:44:40.313Z,5.97
2024-03-12T22:47:42.551Z,6.20
2024-03-12T22:50:44.802Z,6.47
2024-03-12T22:53:46.855Z,6.60
2024-03-12T22:56:50.404Z,6.95
2024-03-12T22:59:52.654Z,6.80
2024-03-12T23:02:56.830Z,6.95
2024-03-12T23:05:59.297Z,7.18
2024-03-12T23:09:01.598Z,7.07
2024-03-12T23:12:05.278Z,7.32
2024-03-12T23:15:07.725Z,6.55
2024-03-12T23:18:10.136Z,6.72
2024-03-12T23:21:12.055Z,7.47
2024-03-12T23:24:13.833Z,7.38
2024-03-12T23:27:17.153Z,7.43
2024-03-12T23:30:19.148Z,6.53
2024-03-12T23:33:21.039Z,7.53
2024-03-12T23:36:23.003Z,6.68
2024-03-12T23:39:24.898Z,7.30
2024-03-12T23:42:28.327Z,6.50
2024-03-12T23:45:30.219Z,7.78
2024-03-12T23:48:31.991Z,7.45
2024-03-12T23:51:33.720Z,7.95
2024-03-12T23:54:35.697Z,7.72
2024-03-12T23:57:39.383Z,7.55
